sensor_id;sensor_type;location;lat;lon;timestamp;P1;durP1;ratioP1;P2;durP2;ratioP2
17251;SDS011;8742;51.716;8.790;2023-11-18T00:00:46;58.77;;;24.47;;
17251;SDS011;8742;51.716;8.790;2023-11-18T00:03:15;67.40;;;26.43;;
17251;SDS011;8742;51.716;8.790;2023-11-18T00:05:42;69.63;;;25.73;;
17251;SDS011;8742;51.716;8.790;2023-11-18T00:08:09;61.13;;;24.50;;
17251;SDS011;8742;51.716;8.790;2023-11-18T00:10:35;65.77;;;26.27;;
17251;SDS011;8742;51.716;8.790;2023-11-18T00:13:01;58.90;;;24.47;;
17251;SDS011;8742;51.716;8.790;2023-11-18T00:15:29;59.93;;;24.93;;
17251;SDS011;8742;51.716;8.790;2023-11-18T00:17:57;66.30;;;24.50;;
17251;SDS011;8742;51.716;8.790;2023-11-18T00:20:24;55.03;;;23.53;;
17251;SDS011;8742;51.716;8.790;2023-11-18T00:22:51;57.00;;;22.57;;
17251;SDS011;8742;51.716;8.790;2023-11-18T00:25:20;56.03;;;22.30;;
17251;SDS011;8742;51.716;8.790;2023-11-18T00:27:47;55.43;;;22.43;;
17251;SDS011;8742;51.716;8.790;2023-11-18T00:30:14;53.23;;;21.83;;
17251;SDS011;8742;51.716;8.790;2023-11-18T00:32:41;59.30;;;21.73;;
17251;SDS011;8742;51.716;8.790;2023-11-18T00:35:10;61.50;;;22.60;;
17251;SDS011;8742;51.716;8.790;2023-11-18T00:37:37;57.90;;;23.00;;
17251;SDS011;8742;51.716;8.790;2023-11-18T00:40:04;57.70;;;21.67;;
17251;SDS011;8742;51.716;8.790;2023-11-18T00:42:32;67.80;;;23.10;;
17251;SDS011;8742;51.716;8.790;2023-11-18T00:44:59;55.60;;;22.00;;
17251;SDS011;8742;51.716;8.790;2023-11-18T00:47:26;58.43;;;23.80;;
17251;SDS011;8742;51.716;8.790;2023-11-18T00:49:53;49.87;;;21.33;;
17251;SDS011;8742;51.716;8.790;2023-11-18T00:52:21;52.17;;;21.63;;
17251;SDS011;8742;51.716;8.790;2023-11-18T00:54:49;52.57;;;21.27;;
17251;SDS011;8742;51.716;8.790;2023-11-18T00:57:17;49.43;;;21.00;;
17251;SDS011;8742;51.716;8.790;2023-11-18T00:59:44;59.00;;;21.53;;
17251;SDS011;8742;51.716;8.790;2023-11-18T01:02:11;48.53;;;19.93;;
17251;SDS011;8742;51.716;8.790;2023-11-18T01:04:38;55.67;;;21.10;;
17251;SDS011;8742;51.716;8.790;2023-11-18T01:07:05;47.97;;;20.20;;
17251;SDS011;8742;51.716;8.790;2023-11-18T01:09:34;48.47;;;19.00;;
17251;SDS011;8742;51.716;8.790;2023-11-18T01:12:04;51.10;;;20.93;;
17251;SDS011;8742;51.716;8.790;2023-11-18T01:14:34;48.53;;;19.33;;
17251;SDS011;8742;51.716;8.790;2023-11-18T01:17:03;49.40;;;19.90;;
17251;SDS011;8742;51.716;8.790;2023-11-18T01:19:30;50.90;;;20.90;;
17251;SDS011;8742;51.716;8.790;2023-11-18T01:21:58;51.87;;;21.73;;
17251;SDS011;8742;51.716;8.790;2023-11-18T01:24:25;46.53;;;19.10;;
17251;SDS011;8742;51.716;8.790;2023-11-18T01:26:54;50.03;;;19.40;;
17251;SDS011;8742;51.716;8.790;2023-11-18T01:29:21;42.93;;;19.00;;
17251;SDS011;8742;51.716;8.790;2023-11-18T01:31:49;43.73;;;19.57;;
17251;SDS011;8742;51.716;8.790;2023-11-18T01:34:15;53.03;;;20.20;;
17251;SDS011;8742;51.716;8.790;2023-11-18T01:36:46;43.47;;;18.30;;
17251;SDS011;8742;51.716;8.790;2023-11-18T01:39:14;48.13;;;20.00;;
17251;SDS011;8742;51.716;8.790;2023-11-18T01:41:42;52.07;;;19.23;;
17251;SDS011;8742;51.716;8.790;2023-11-18T01:44:10;51.57;;;20.07;;
17251;SDS011;8742;51.716;8.790;2023-11-18T01:46:38;40.00;;;18.60;;
17251;SDS011;8742;51.716;8.790;2023-11-18T01:49:09;42.20;;;19.27;;
17251;SDS011;8742;51.716;8.790;2023-11-18T01:51:38;47.87;;;19.57;;
17251;SDS011;8742;51.716;8.790;2023-11-18T01:54:06;48.90;;;21.27;;
17251;SDS011;8742;51.716;8.790;2023-11-18T01:56:37;48.63;;;20.03;;
17251;SDS011;8742;51.716;8.790;2023-11-18T01:59:04;49.60;;;20.13;;
17251;SDS011;8742;51.716;8.790;2023-11-18T02:01:35;49.13;;;21.67;;
17251;SDS011;8742;51.716;8.790;2023-11-18T02:04:04;49.43;;;20.53;;
17251;SDS011;8742;51.716;8.790;2023-11-18T02:06:32;47.13;;;20.40;;
17251;SDS011;8742;51.716;8.790;2023-11-18T02:09:01;48.80;;;19.57;;
17251;SDS011;8742;51.716;8.790;2023-11-18T02:11:30;46.83;;;20.73;;
17251;SDS011;8742;51.716;8.790;2023-11-18T02:14:06;63.67;;;21.87;;
17251;SDS011;8742;51.716;8.790;2023-11-18T02:16:37;51.70;;;21.10;;
17251;SDS011;8742;51.716;8.790;2023-11-18T02:19:07;42.70;;;19.27;;
17251;SDS011;8742;51.716;8.790;2023-11-18T02:21:45;49.57;;;19.10;;
17251;SDS011;8742;51.716;8.790;2023-11-18T02:24:24;40.37;;;18.83;;
17251;SDS011;8742;51.716;8.790;2023-11-18T02:26:53;55.97;;;20.50;;
17251;SDS011;8742;51.716;8.790;2023-11-18T02:29:20;46.20;;;18.87;;
17251;SDS011;8742;51.716;8.790;2023-11-18T02:31:47;50.10;;;19.27;;
17251;SDS011;8742;51.716;8.790;2023-11-18T02:34:19;43.87;;;19.93;;
17251;SDS011;8742;51.716;8.790;2023-11-18T02:36:53;45.03;;;18.70;;
17251;SDS011;8742;51.716;8.790;2023-11-18T02:39:27;50.80;;;19.70;;
17251;SDS011;8742;51.716;8.790;2023-11-18T02:42:01;50.57;;;20.90;;
17251;SDS011;8742;51.716;8.790;2023-11-18T02:44:29;53.60;;;22.63;;
17251;SDS011;8742;51.716;8.790;2023-11-18T02:46:58;55.27;;;22.37;;
17251;SDS011;8742;51.716;8.790;2023-11-18T02:49:25;62.53;;;23.57;;
17251;SDS011;8742;51.716;8.790;2023-11-18T02:51:53;58.17;;;24.70;;
17251;SDS011;8742;51.716;8.790;2023-11-18T02:54:20;56.97;;;23.83;;
17251;SDS011;8742;51.716;8.790;2023-11-18T02:56:47;66.63;;;25.70;;
17251;SDS011;8742;51.716;8.790;2023-11-18T02:59:15;60.70;;;25.23;;
17251;SDS011;8742;51.716;8.790;2023-11-18T03:01:42;63.40;;;25.80;;
17251;SDS011;8742;51.716;8.790;2023-11-18T03:04:09;67.27;;;26.30;;
17251;SDS011;8742;51.716;8.790;2023-11-18T03:06:36;70.27;;;28.00;;
17251;SDS011;8742;51.716;8.790;2023-11-18T03:09:03;68.67;;;28.40;;
17251;SDS011;8742;51.716;8.790;2023-11-18T03:11:32;73.60;;;28.03;;
17251;SDS011;8742;51.716;8.790;2023-11-18T03:13:59;73.27;;;29.60;;
17251;SDS011;8742;51.716;8.790;2023-11-18T03:16:28;75.23;;;27.10;;
17251;SDS011;8742;51.716;8.790;2023-11-18T03:18:54;62.83;;;27.30;;
17251;SDS011;8742;51.716;8.790;2023-11-18T03:21:22;69.87;;;26.40;;
17251;SDS011;8742;51.716;8.790;2023-11-18T03:23:51;69.23;;;26.30;;
17251;SDS011;8742;51.716;8.790;2023-11-18T03:26:19;73.03;;;25.97;;
17251;SDS011;8742;51.716;8.790;2023-11-18T03:28:46;63.00;;;25.60;;
17251;SDS011;8742;51.716;8.790;2023-11-18T03:31:13;78.90;;;26.67;;
17251;SDS011;8742;51.716;8.790;2023-11-18T03:33:42;75.80;;;26.63;;
17251;SDS011;8742;51.716;8.790;2023-11-18T03:36:09;69.00;;;25.77;;
17251;SDS011;8742;51.716;8.790;2023-11-18T03:38:37;65.53;;;25.30;;
17251;SDS011;8742;51.716;8.790;2023-11-18T03:41:04;60.17;;;25.30;;
17251;SDS011;8742;51.716;8.790;2023-11-18T03:43:33;56.77;;;23.27;;
17251;SDS011;8742;51.716;8.790;2023-11-18T03:46:00;63.03;;;24.17;;
17251;SDS011;8742;51.716;8.790;2023-11-18T03:48:27;62.53;;;22.50;;
17251;SDS011;8742;51.716;8.790;2023-11-18T03:50:55;51.87;;;22.53;;
17251;SDS011;8742;51.716;8.790;2023-11-18T03:53:21;51.80;;;22.00;;
17251;SDS011;8742;51.716;8.790;2023-11-18T03:55:48;54.73;;;19.57;;
17251;SDS011;8742;51.716;8.790;2023-11-18T03:58:16;53.10;;;20.60;;
17251;SDS011;8742;51.716;8.790;2023-11-18T04:00:43;52.73;;;21.87;;
17251;SDS011;8742;51.716;8.790;2023-11-18T04:03:10;55.57;;;22.53;;
17251;SDS011;8742;51.716;8.790;2023-11-18T04:05:37;53.67;;;21.10;;
17251;SDS011;8742;51.716;8.790;2023-11-18T04:08:06;51.43;;;20.73;;
17251;SDS011;8742;51.716;8.790;2023-11-18T04:10:33;53.73;;;22.00;;
17251;SDS011;8742;51.716;8.790;2023-11-18T04:12:59;43.97;;;20.20;;
17251;SDS011;8742;51.716;8.790;2023-11-18T04:15:26;43.37;;;20.40;;
17251;SDS011;8742;51.716;8.790;2023-11-18T04:17:53;49.37;;;19.90;;
17251;SDS011;8742;51.716;8.790;2023-11-18T04:20:20;46.73;;;20.73;;
17251;SDS011;8742;51.716;8.790;2023-11-18T04:22:48;47.13;;;20.73;;
17251;SDS011;8742;51.716;8.790;2023-11-18T04:25:16;42.43;;;18.90;;
17251;SDS011;8742;51.716;8.790;2023-11-18T04:27:43;43.33;;;19.17;;
17251;SDS011;8742;51.716;8.790;2023-11-18T04:30:10;43.07;;;19.43;;
17251;SDS011;8742;51.716;8.790;2023-11-18T04:32:37;44.93;;;18.20;;
17251;SDS011;8742;51.716;8.790;2023-11-18T04:35:08;43.23;;;17.07;;
17251;SDS011;8742;51.716;8.790;2023-11-18T04:37:37;46.83;;;18.47;;
17251;SDS011;8742;51.716;8.790;2023-11-18T04:40:08;38.23;;;18.50;;
17251;SDS011;8742;51.716;8.790;2023-11-18T04:42:38;44.97;;;18.33;;
17251;SDS011;8742;51.716;8.790;2023-11-18T04:45:05;52.30;;;19.60;;
17251;SDS011;8742;51.716;8.790;2023-11-18T04:47:34;45.77;;;19.27;;
17251;SDS011;8742;51.716;8.790;2023-11-18T04:50:02;47.80;;;19.50;;
17251;SDS011;8742;51.716;8.790;2023-11-18T04:52:29;45.63;;;20.13;;
17251;SDS011;8742;51.716;8.790;2023-11-18T04:54:57;49.13;;;20.57;;
17251;SDS011;8742;51.716;8.790;2023-11-18T04:57:25;48.63;;;19.67;;
17251;SDS011;8742;51.716;8.790;2023-11-18T04:59:53;52.83;;;19.50;;
17251;SDS011;8742;51.716;8.790;2023-11-18T05:02:20;37.83;;;18.83;;
17251;SDS011;8742;51.716;8.790;2023-11-18T05:04:47;50.93;;;19.77;;
17251;SDS011;8742;51.716;8.790;2023-11-18T05:07:15;41.17;;;17.90;;
17251;SDS011;8742;51.716;8.790;2023-11-18T05:09:42;42.63;;;19.23;;
17251;SDS011;8742;51.716;8.790;2023-11-18T05:12:09;45.53;;;18.73;;
17251;SDS011;8742;51.716;8.790;2023-11-18T05:14:36;44.70;;;18.90;;
17251;SDS011;8742;51.716;8.790;2023-11-18T05:17:04;46.40;;;19.07;;
17251;SDS011;8742;51.716;8.790;2023-11-18T05:19:31;52.67;;;20.07;;
17251;SDS011;8742;51.716;8.790;2023-11-18T05:21:58;53.60;;;19.10;;
17251;SDS011;8742;51.716;8.790;2023-11-18T05:24:25;47.90;;;19.63;;
17251;SDS011;8742;51.716;8.790;2023-11-18T05:26:52;43.37;;;19.87;;
17251;SDS011;8742;51.716;8.790;2023-11-18T05:29:19;49.17;;;19.10;;
17251;SDS011;8742;51.716;8.790;2023-11-18T05:31:46;35.57;;;18.50;;
17251;SDS011;8742;51.716;8.790;2023-11-18T05:34:15;42.83;;;18.40;;
17251;SDS011;8742;51.716;8.790;2023-11-18T05:36:45;40.90;;;17.90;;
17251;SDS011;8742;51.716;8.790;2023-11-18T05:39:16;37.90;;;16.73;;
17251;SDS011;8742;51.716;8.790;2023-11-18T05:41:45;34.83;;;18.20;;
17251;SDS011;8742;51.716;8.790;2023-11-18T05:44:14;36.83;;;16.40;;
17251;SDS011;8742;51.716;8.790;2023-11-18T05:46:44;36.40;;;16.20;;
17251;SDS011;8742;51.716;8.790;2023-11-18T05:49:12;37.20;;;14.63;;
17251;SDS011;8742;51.716;8.790;2023-11-18T05:51:40;39.70;;;15.87;;
17251;SDS011;8742;51.716;8.790;2023-11-18T05:54:07;35.27;;;15.40;;
17251;SDS011;8742;51.716;8.790;2023-11-18T05:56:34;30.93;;;15.27;;
17251;SDS011;8742;51.716;8.790;2023-11-18T05:59:01;33.13;;;14.83;;
17251;SDS011;8742;51.716;8.790;2023-11-18T06:01:28;39.53;;;14.87;;
17251;SDS011;8742;51.716;8.790;2023-11-18T06:03:56;32.80;;;14.60;;
17251;SDS011;8742;51.716;8.790;2023-11-18T06:06:25;26.03;;;12.70;;
17251;SDS011;8742;51.716;8.790;2023-11-18T06:08:52;34.10;;;12.90;;
17251;SDS011;8742;51.716;8.790;2023-11-18T06:11:20;29.67;;;13.30;;
17251;SDS011;8742;51.716;8.790;2023-11-18T06:13:48;28.17;;;12.53;;
17251;SDS011;8742;51.716;8.790;2023-11-18T06:16:17;29.67;;;12.00;;
17251;SDS011;8742;51.716;8.790;2023-11-18T06:18:46;22.63;;;11.50;;
17251;SDS011;8742;51.716;8.790;2023-11-18T06:21:14;28.07;;;11.30;;
17251;SDS011;8742;51.716;8.790;2023-11-18T06:23:43;21.57;;;11.20;;
17251;SDS011;8742;51.716;8.790;2023-11-18T06:26:12;21.33;;;9.97;;
17251;SDS011;8742;51.716;8.790;2023-11-18T06:28:39;27.33;;;10.40;;
17251;SDS011;8742;51.716;8.790;2023-11-18T06:31:07;18.00;;;9.70;;
17251;SDS011;8742;51.716;8.790;2023-11-18T06:33:38;23.73;;;9.73;;
17251;SDS011;8742;51.716;8.790;2023-11-18T06:36:08;16.53;;;8.73;;
17251;SDS011;8742;51.716;8.790;2023-11-18T06:38:36;18.27;;;8.27;;
17251;SDS011;8742;51.716;8.790;2023-11-18T06:41:04;17.97;;;9.00;;
17251;SDS011;8742;51.716;8.790;2023-11-18T06:43:34;16.30;;;8.40;;
17251;SDS011;8742;51.716;8.790;2023-11-18T06:46:16;18.93;;;8.47;;
17251;SDS011;8742;51.716;8.790;2023-11-18T06:48:45;15.40;;;7.77;;
17251;SDS011;8742;51.716;8.790;2023-11-18T06:51:13;17.03;;;8.13;;
17251;SDS011;8742;51.716;8.790;2023-11-18T06:53:40;13.70;;;7.53;;
17251;SDS011;8742;51.716;8.790;2023-11-18T06:56:09;13.63;;;7.73;;
17251;SDS011;8742;51.716;8.790;2023-11-18T06:58:37;12.20;;;6.77;;
17251;SDS011;8742;51.716;8.790;2023-11-18T07:01:04;11.27;;;6.73;;
17251;SDS011;8742;51.716;8.790;2023-11-18T07:03:31;17.83;;;7.70;;
17251;SDS011;8742;51.716;8.790;2023-11-18T07:05:58;9.70;;;5.90;;
17251;SDS011;8742;51.716;8.790;2023-11-18T07:08:25;15.57;;;7.00;;
17251;SDS011;8742;51.716;8.790;2023-11-18T07:10:52;16.63;;;6.80;;
17251;SDS011;8742;51.716;8.790;2023-11-18T07:13:20;11.43;;;6.77;;
17251;SDS011;8742;51.716;8.790;2023-11-18T07:15:48;10.17;;;5.67;;
17251;SDS011;8742;51.716;8.790;2023-11-18T07:18:15;9.00;;;5.63;;
17251;SDS011;8742;51.716;8.790;2023-11-18T07:20:42;10.97;;;5.90;;
17251;SDS011;8742;51.716;8.790;2023-11-18T07:23:09;12.30;;;5.70;;
17251;SDS011;8742;51.716;8.790;2023-11-18T07:25:37;17.13;;;6.17;;
17251;SDS011;8742;51.716;8.790;2023-11-18T07:28:03;8.50;;;5.60;;
17251;SDS011;8742;51.716;8.790;2023-11-18T07:30:35;8.80;;;5.20;;
17251;SDS011;8742;51.716;8.790;2023-11-18T07:33:02;9.80;;;4.80;;
17251;SDS011;8742;51.716;8.790;2023-11-18T07:35:30;9.60;;;5.27;;
17251;SDS011;8742;51.716;8.790;2023-11-18T07:37:57;10.83;;;5.67;;
17251;SDS011;8742;51.716;8.790;2023-11-18T07:40:25;8.03;;;5.27;;
17251;SDS011;8742;51.716;8.790;2023-11-18T07:42:54;10.63;;;5.23;;
17251;SDS011;8742;51.716;8.790;2023-11-18T07:45:22;11.83;;;5.47;;
17251;SDS011;8742;51.716;8.790;2023-11-18T07:47:50;8.73;;;4.97;;
17251;SDS011;8742;51.716;8.790;2023-11-18T07:50:17;8.47;;;5.23;;
17251;SDS011;8742;51.716;8.790;2023-11-18T07:52:45;9.87;;;5.57;;
17251;SDS011;8742;51.716;8.790;2023-11-18T07:55:12;9.73;;;5.83;;
17251;SDS011;8742;51.716;8.790;2023-11-18T07:57:39;9.57;;;5.17;;
17251;SDS011;8742;51.716;8.790;2023-11-18T08:00:06;12.80;;;5.67;;
17251;SDS011;8742;51.716;8.790;2023-11-18T08:02:35;12.37;;;6.23;;
17251;SDS011;8742;51.716;8.790;2023-11-18T08:05:04;8.73;;;5.53;;
17251;SDS011;8742;51.716;8.790;2023-11-18T08:07:33;10.17;;;5.43;;
17251;SDS011;8742;51.716;8.790;2023-11-18T08:10:00;11.27;;;5.47;;
17251;SDS011;8742;51.716;8.790;2023-11-18T08:12:29;8.83;;;5.73;;
17251;SDS011;8742;51.716;8.790;2023-11-18T08:14:55;9.57;;;5.90;;
17251;SDS011;8742;51.716;8.790;2023-11-18T08:17:22;9.37;;;5.70;;
17251;SDS011;8742;51.716;8.790;2023-11-18T08:19:50;11.43;;;5.60;;
17251;SDS011;8742;51.716;8.790;2023-11-18T08:22:19;8.97;;;5.27;;
17251;SDS011;8742;51.716;8.790;2023-11-18T08:24:48;10.83;;;4.83;;
17251;SDS011;8742;51.716;8.790;2023-11-18T08:27:15;8.23;;;4.63;;
17251;SDS011;8742;51.716;8.790;2023-11-18T08:29:43;8.90;;;5.20;;
17251;SDS011;8742;51.716;8.790;2023-11-18T08:32:14;10.33;;;5.50;;
17251;SDS011;8742;51.716;8.790;2023-11-18T08:34:41;9.60;;;5.30;;
17251;SDS011;8742;51.716;8.790;2023-11-18T08:37:08;9.57;;;5.33;;
17251;SDS011;8742;51.716;8.790;2023-11-18T08:39:37;13.17;;;5.73;;
17251;SDS011;8742;51.716;8.790;2023-11-18T08:42:05;11.43;;;5.40;;
17251;SDS011;8742;51.716;8.790;2023-11-18T08:44:32;9.17;;;5.83;;
17251;SDS011;8742;51.716;8.790;2023-11-18T08:46:59;12.37;;;5.87;;
17251;SDS011;8742;51.716;8.790;2023-11-18T08:49:31;10.70;;;5.40;;
17251;SDS011;8742;51.716;8.790;2023-11-18T08:51:59;9.67;;;5.43;;
17251;SDS011;8742;51.716;8.790;2023-11-18T08:54:26;10.40;;;5.20;;
17251;SDS011;8742;51.716;8.790;2023-11-18T08:57:04;9.60;;;5.43;;
17251;SDS011;8742;51.716;8.790;2023-11-18T08:59:45;8.97;;;5.07;;
17251;SDS011;8742;51.716;8.790;2023-11-18T09:02:12;8.90;;;5.67;;
17251;SDS011;8742;51.716;8.790;2023-11-18T09:04:40;9.63;;;5.60;;
17251;SDS011;8742;51.716;8.790;2023-11-18T09:07:08;8.97;;;5.17;;
17251;SDS011;8742;51.716;8.790;2023-11-18T09:09:36;9.27;;;5.53;;
17251;SDS011;8742;51.716;8.790;2023-11-18T09:12:06;7.77;;;5.77;;
17251;SDS011;8742;51.716;8.790;2023-11-18T09:14:34;10.63;;;5.83;;
17251;SDS011;8742;51.716;8.790;2023-11-18T09:17:01;7.40;;;5.70;;
17251;SDS011;8742;51.716;8.790;2023-11-18T09:19:31;11.17;;;6.00;;
17251;SDS011;8742;51.716;8.790;2023-11-18T09:21:58;8.97;;;5.47;;
17251;SDS011;8742;51.716;8.790;2023-11-18T09:24:25;11.47;;;5.70;;
17251;SDS011;8742;51.716;8.790;2023-11-18T09:26:52;11.33;;;6.10;;
17251;SDS011;8742;51.716;8.790;2023-11-18T09:29:21;8.37;;;5.77;;
17251;SDS011;8742;51.716;8.790;2023-11-18T09:31:49;9.60;;;5.70;;
17251;SDS011;8742;51.716;8.790;2023-11-18T09:34:19;8.57;;;5.50;;
17251;SDS011;8742;51.716;8.790;2023-11-18T09:36:52;8.83;;;5.70;;
17251;SDS011;8742;51.716;8.790;2023-11-18T09:39:20;12.23;;;5.83;;
17251;SDS011;8742;51.716;8.790;2023-11-18T09:42:03;9.67;;;6.40;;
17251;SDS011;8742;51.716;8.790;2023-11-18T09:44:35;8.70;;;5.70;;
17251;SDS011;8742;51.716;8.790;2023-11-18T09:47:07;10.50;;;6.13;;
17251;SDS011;8742;51.716;8.790;2023-11-18T09:49:39;7.73;;;6.00;;
17251;SDS011;8742;51.716;8.790;2023-11-18T09:52:12;11.13;;;6.00;;
17251;SDS011;8742;51.716;8.790;2023-11-18T09:54:45;10.53;;;6.87;;
17251;SDS011;8742;51.716;8.790;2023-11-18T09:57:23;10.57;;;6.67;;
17251;SDS011;8742;51.716;8.790;2023-11-18T10:00:01;10.40;;;6.93;;
17251;SDS011;8742;51.716;8.790;2023-11-18T10:02:45;9.93;;;6.83;;
17251;SDS011;8742;51.716;8.790;2023-11-18T10:05:15;11.97;;;6.70;;
17251;SDS011;8742;51.716;8.790;2023-11-18T10:07:46;10.93;;;7.30;;
17251;SDS011;8742;51.716;8.790;2023-11-18T10:10:13;10.20;;;6.10;;
17251;SDS011;8742;51.716;8.790;2023-11-18T10:12:41;9.10;;;6.20;;
17251;SDS011;8742;51.716;8.790;2023-11-18T10:15:13;9.83;;;6.03;;
17251;SDS011;8742;51.716;8.790;2023-11-18T10:17:44;12.27;;;6.47;;
17251;SDS011;8742;51.716;8.790;2023-11-18T10:20:22;13.10;;;6.67;;
17251;SDS011;8742;51.716;8.790;2023-11-18T10:23:10;10.40;;;6.37;;
17251;SDS011;8742;51.716;8.790;2023-11-18T10:25:41;12.20;;;6.47;;
17251;SDS011;8742;51.716;8.790;2023-11-18T10:28:21;8.70;;;6.37;;
17251;SDS011;8742;51.716;8.790;2023-11-18T10:30:54;13.90;;;6.57;;
17251;SDS011;8742;51.716;8.790;2023-11-18T10:33:24;8.57;;;5.87;;
17251;SDS011;8742;51.716;8.790;2023-11-18T10:35:55;9.47;;;6.10;;
17251;SDS011;8742;51.716;8.790;2023-11-18T10:38:22;16.43;;;6.83;;
17251;SDS011;8742;51.716;8.790;2023-11-18T10:40:54;12.37;;;7.30;;
17251;SDS011;8742;51.716;8.790;2023-11-18T10:43:23;10.83;;;7.33;;
17251;SDS011;8742;51.716;8.790;2023-11-18T10:45:51;12.47;;;7.07;;
17251;SDS011;8742;51.716;8.790;2023-11-18T10:48:30;10.90;;;6.90;;
17251;SDS011;8742;51.716;8.790;2023-11-18T10:50:57;14.60;;;7.10;;
17251;SDS011;8742;51.716;8.790;2023-11-18T10:53:25;13.53;;;7.30;;
17251;SDS011;8742;51.716;8.790;2023-11-18T10:55:53;11.90;;;6.97;;
17251;SDS011;8742;51.716;8.790;2023-11-18T10:58:22;10.53;;;7.23;;
17251;SDS011;8742;51.716;8.790;2023-11-18T11:00:50;14.93;;;8.37;;
17251;SDS011;8742;51.716;8.790;2023-11-18T11:03:22;14.50;;;7.60;;
17251;SDS011;8742;51.716;8.790;2023-11-18T11:05:49;10.97;;;6.93;;
17251;SDS011;8742;51.716;8.790;2023-11-18T11:08:19;10.43;;;7.53;;
17251;SDS011;8742;51.716;8.790;2023-11-18T11:10:46;14.27;;;7.20;;
17251;SDS011;8742;51.716;8.790;2023-11-18T11:13:15;11.87;;;6.37;;
17251;SDS011;8742;51.716;8.790;2023-11-18T11:15:43;15.47;;;7.90;;
17251;SDS011;8742;51.716;8.790;2023-11-18T11:18:14;13.60;;;7.10;;
17251;SDS011;8742;51.716;8.790;2023-11-18T11:20:56;13.27;;;7.30;;
17251;SDS011;8742;51.716;8.790;2023-11-18T11:23:30;10.47;;;6.60;;
17251;SDS011;8742;51.716;8.790;2023-11-18T11:26:10;12.33;;;6.23;;
17251;SDS011;8742;51.716;8.790;2023-11-18T11:28:55;8.97;;;5.97;;
17251;SDS011;8742;51.716;8.790;2023-11-18T11:31:38;10.97;;;6.33;;
17251;SDS011;8742;51.716;8.790;2023-11-18T11:34:06;11.53;;;7.00;;
17251;SDS011;8742;51.716;8.790;2023-11-18T11:36:41;12.20;;;7.10;;
17251;SDS011;8742;51.716;8.790;2023-11-18T11:39:11;13.00;;;6.83;;
17251;SDS011;8742;51.716;8.790;2023-11-18T11:41:42;9.57;;;5.87;;
17251;SDS011;8742;51.716;8.790;2023-11-18T11:44:11;7.73;;;5.93;;
17251;SDS011;8742;51.716;8.790;2023-11-18T11:46:39;10.60;;;5.47;;
17251;SDS011;8742;51.716;8.790;2023-11-18T11:49:08;8.90;;;5.60;;
17251;SDS011;8742;51.716;8.790;2023-11-18T11:51:47;8.13;;;5.43;;
17251;SDS011;8742;51.716;8.790;2023-11-18T11:54:20;10.43;;;5.97;;
17251;SDS011;8742;51.716;8.790;2023-11-18T11:56:55;7.63;;;5.27;;
17251;SDS011;8742;51.716;8.790;2023-11-18T12:02:22;8.67;;;5.30;;
17251;SDS011;8742;51.716;8.790;2023-11-18T12:04:54;10.90;;;5.87;;
17251;SDS011;8742;51.716;8.790;2023-11-18T12:07:25;10.17;;;4.93;;
17251;SDS011;8742;51.716;8.790;2023-11-18T12:09:56;10.60;;;5.37;;
17251;SDS011;8742;51.716;8.790;2023-11-18T12:12:24;8.37;;;5.13;;
17251;SDS011;8742;51.716;8.790;2023-11-18T12:14:52;9.50;;;5.53;;
17251;SDS011;8742;51.716;8.790;2023-11-18T12:17:21;11.00;;;5.37;;
17251;SDS011;8742;51.716;8.790;2023-11-18T12:19:57;7.60;;;5.40;;
17251;SDS011;8742;51.716;8.790;2023-11-18T12:22:26;9.03;;;4.97;;
17251;SDS011;8742;51.716;8.790;2023-11-18T12:28:07;8.30;;;4.50;;
17251;SDS011;8742;51.716;8.790;2023-11-18T12:30:38;8.77;;;3.97;;
17251;SDS011;8742;51.716;8.790;2023-11-18T12:33:17;4.87;;;3.80;;
17251;SDS011;8742;51.716;8.790;2023-11-18T12:35:51;6.20;;;3.90;;
17251;SDS011;8742;51.716;8.790;2023-11-18T12:38:52;5.77;;;4.10;;
17251;SDS011;8742;51.716;8.790;2023-11-18T12:41:43;4.43;;;3.00;;
17251;SDS011;8742;51.716;8.790;2023-11-18T12:44:25;6.97;;;3.60;;
17251;SDS011;8742;51.716;8.790;2023-11-18T12:46:59;5.90;;;3.23;;
17251;SDS011;8742;51.716;8.790;2023-11-18T12:49:39;7.43;;;3.90;;
17251;SDS011;8742;51.716;8.790;2023-11-18T12:52:07;6.90;;;4.23;;
17251;SDS011;8742;51.716;8.790;2023-11-18T12:54:36;5.87;;;3.90;;
17251;SDS011;8742;51.716;8.790;2023-11-18T12:57:08;8.03;;;4.20;;
17251;SDS011;8742;51.716;8.790;2023-11-18T12:59:38;6.73;;;4.07;;
17251;SDS011;8742;51.716;8.790;2023-11-18T13:02:06;7.97;;;4.10;;
17251;SDS011;8742;51.716;8.790;2023-11-18T13:04:38;6.73;;;4.10;;
17251;SDS011;8742;51.716;8.790;2023-11-18T13:07:05;8.77;;;4.43;;
17251;SDS011;8742;51.716;8.790;2023-11-18T13:09:33;8.63;;;4.70;;
17251;SDS011;8742;51.716;8.790;2023-11-18T13:12:03;5.60;;;3.37;;
17251;SDS011;8742;51.716;8.790;2023-11-18T13:14:31;8.13;;;4.20;;
17251;SDS011;8742;51.716;8.790;2023-11-18T13:17:01;7.13;;;4.00;;
17251;SDS011;8742;51.716;8.790;2023-11-18T13:19:30;7.33;;;4.27;;
17251;SDS011;8742;51.716;8.790;2023-11-18T13:21:59;7.87;;;4.97;;
17251;SDS011;8742;51.716;8.790;2023-11-18T13:24:28;7.53;;;3.93;;
17251;SDS011;8742;51.716;8.790;2023-11-18T13:26:57;7.73;;;4.80;;
17251;SDS011;8742;51.716;8.790;2023-11-18T13:29:28;8.87;;;4.40;;
17251;SDS011;8742;51.716;8.790;2023-11-18T13:31:55;7.63;;;4.80;;
17251;SDS011;8742;51.716;8.790;2023-11-18T13:34:23;7.07;;;4.47;;
17251;SDS011;8742;51.716;8.790;2023-11-18T13:36:52;7.17;;;4.33;;
17251;SDS011;8742;51.716;8.790;2023-11-18T13:39:20;7.07;;;4.30;;
17251;SDS011;8742;51.716;8.790;2023-11-18T13:41:48;8.73;;;4.60;;
17251;SDS011;8742;51.716;8.790;2023-11-18T13:47:00;7.67;;;4.23;;
17251;SDS011;8742;51.716;8.790;2023-11-18T13:49:30;8.30;;;4.90;;
17251;SDS011;8742;51.716;8.790;2023-11-18T13:51:57;7.73;;;4.43;;
17251;SDS011;8742;51.716;8.790;2023-11-18T13:54:25;10.80;;;5.40;;
17251;SDS011;8742;51.716;8.790;2023-11-18T13:56:55;10.33;;;5.13;;
17251;SDS011;8742;51.716;8.790;2023-11-18T13:59:24;12.27;;;5.03;;
17251;SDS011;8742;51.716;8.790;2023-11-18T14:01:53;7.77;;;5.00;;
17251;SDS011;8742;51.716;8.790;2023-11-18T14:04:22;12.27;;;6.03;;
17251;SDS011;8742;51.716;8.790;2023-11-18T14:06:50;13.43;;;6.77;;
17251;SDS011;8742;51.716;8.790;2023-11-18T14:09:18;9.63;;;6.43;;
17251;SDS011;8742;51.716;8.790;2023-11-18T14:11:47;11.83;;;6.40;;
17251;SDS011;8742;51.716;8.790;2023-11-18T14:14:14;16.67;;;6.80;;
17251;SDS011;8742;51.716;8.790;2023-11-18T14:16:42;13.83;;;5.97;;
17251;SDS011;8742;51.716;8.790;2023-11-18T14:19:11;11.90;;;6.63;;
17251;SDS011;8742;51.716;8.790;2023-11-18T14:21:39;17.37;;;5.13;;
17251;SDS011;8742;51.716;8.790;2023-11-18T14:24:07;14.47;;;8.20;;
17251;SDS011;8742;51.716;8.790;2023-11-18T14:26:35;15.60;;;7.33;;
17251;SDS011;8742;51.716;8.790;2023-11-18T14:29:02;12.87;;;6.90;;
17251;SDS011;8742;51.716;8.790;2023-11-18T14:31:29;14.53;;;7.93;;
17251;SDS011;8742;51.716;8.790;2023-11-18T14:33:56;14.03;;;7.00;;
17251;SDS011;8742;51.716;8.790;2023-11-18T14:36:25;12.60;;;5.93;;
17251;SDS011;8742;51.716;8.790;2023-11-18T14:38:52;13.67;;;7.50;;
17251;SDS011;8742;51.716;8.790;2023-11-18T14:41:19;16.57;;;7.17;;
17251;SDS011;8742;51.716;8.790;2023-11-18T14:43:50;14.73;;;7.87;;
17251;SDS011;8742;51.716;8.790;2023-11-18T14:46:18;18.77;;;8.37;;
17251;SDS011;8742;51.716;8.790;2023-11-18T14:48:44;14.80;;;8.27;;
17251;SDS011;8742;51.716;8.790;2023-11-18T14:51:12;16.57;;;7.97;;
17251;SDS011;8742;51.716;8.790;2023-11-18T14:53:43;16.80;;;7.90;;
17251;SDS011;8742;51.716;8.790;2023-11-18T14:56:11;15.60;;;7.27;;
17251;SDS011;8742;51.716;8.790;2023-11-18T14:58:39;14.77;;;8.00;;
17251;SDS011;8742;51.716;8.790;2023-11-18T15:01:06;16.00;;;8.40;;
17251;SDS011;8742;51.716;8.790;2023-11-18T15:03:35;15.53;;;8.27;;
17251;SDS011;8742;51.716;8.790;2023-11-18T15:06:03;14.90;;;7.00;;